TAF Text Data
IDs:
Format:
Raw Decoded Include METAR

Data at: 1428 UTC 10 Aug 2022

KCHS 101120Z 1012/1112 24009KT P6SM FEW035 SCT250
  FM101800 21011KT P6SM VCSH BKN050
  FM102300 21009KT P6SM FEW060 SCT150 BKN250